sensor_id;sensor_type;location;lat;lon;timestamp;P1;durP1;ratioP1;P2;durP2;ratioP2
38318;SDS011;24121;53.536;10.224;2023-06-22T06:44:14;4.85;;;3.80;;
38318;SDS011;24121;53.536;10.224;2023-06-22T06:46:40;5.60;;;4.03;;
38318;SDS011;24121;53.536;10.224;2023-06-22T06:49:06;5.30;;;3.35;;
38318;SDS011;24121;53.536;10.224;2023-06-22T06:51:32;4.63;;;4.03;;
38318;SDS011;24121;53.536;10.224;2023-06-22T06:53:57;6.20;;;3.60;;
38318;SDS011;24121;53.536;10.224;2023-06-22T06:56:23;4.25;;;3.40;;
38318;SDS011;24121;53.536;10.224;2023-06-22T06:58:49;4.65;;;4.07;;
38318;SDS011;24121;53.536;10.224;2023-06-22T07:01:15;4.38;;;3.67;;
38318;SDS011;24121;53.536;10.224;2023-06-22T07:03:40;5.10;;;3.55;;
38318;SDS011;24121;53.536;10.224;2023-06-22T07:06:05;4.00;;;3.35;;
38318;SDS011;24121;53.536;10.224;2023-06-22T07:08:31;5.28;;;3.53;;
38318;SDS011;24121;53.536;10.224;2023-06-22T07:10:56;8.02;;;3.97;;
38318;SDS011;24121;53.536;10.224;2023-06-22T07:13:21;3.40;;;3.00;;
38318;SDS011;24121;53.536;10.224;2023-06-22T07:15:47;4.90;;;3.50;;
38318;SDS011;24121;53.536;10.224;2023-06-22T07:18:12;5.05;;;3.55;;
38318;SDS011;24121;53.536;10.224;2023-06-22T07:20:37;5.60;;;3.50;;
38318;SDS011;24121;53.536;10.224;2023-06-22T07:23:04;3.83;;;3.30;;
38318;SDS011;24121;53.536;10.224;2023-06-22T07:25:30;5.72;;;3.33;;
38318;SDS011;24121;53.536;10.224;2023-06-22T07:28:03;4.90;;;3.22;;
38318;SDS011;24121;53.536;10.224;2023-06-22T07:30:30;3.58;;;2.83;;
38318;SDS011;24121;53.536;10.224;2023-06-22T07:32:56;4.95;;;3.53;;
38318;SDS011;24121;53.536;10.224;2023-06-22T07:35:23;3.28;;;2.70;;
38318;SDS011;24121;53.536;10.224;2023-06-22T07:37:48;5.07;;;3.00;;
38318;SDS011;24121;53.536;10.224;2023-06-22T07:40:14;3.83;;;3.17;;
38318;SDS011;24121;53.536;10.224;2023-06-22T07:42:39;3.97;;;3.05;;
38318;SDS011;24121;53.536;10.224;2023-06-22T07:45:04;3.92;;;3.03;;
38318;SDS011;24121;53.536;10.224;2023-06-22T07:47:32;4.28;;;3.05;;
38318;SDS011;24121;53.536;10.224;2023-06-22T07:50:00;3.28;;;2.97;;
38318;SDS011;24121;53.536;10.224;2023-06-22T07:52:26;3.50;;;2.80;;
38318;SDS011;24121;53.536;10.224;2023-06-22T07:54:51;4.25;;;3.08;;
38318;SDS011;24121;53.536;10.224;2023-06-22T07:57:16;4.78;;;2.80;;
38318;SDS011;24121;53.536;10.224;2023-06-22T07:59:42;4.28;;;3.00;;
38318;SDS011;24121;53.536;10.224;2023-06-22T08:02:07;5.88;;;3.00;;
38318;SDS011;24121;53.536;10.224;2023-06-22T08:04:34;6.15;;;3.13;;
38318;SDS011;24121;53.536;10.224;2023-06-22T08:06:59;3.00;;;2.75;;
38318;SDS011;24121;53.536;10.224;2023-06-22T08:09:25;5.63;;;3.22;;
38318;SDS011;24121;53.536;10.224;2023-06-22T08:11:52;3.40;;;3.03;;
38318;SDS011;24121;53.536;10.224;2023-06-22T08:14:19;4.03;;;3.00;;
38318;SDS011;24121;53.536;10.224;2023-06-22T08:16:44;3.42;;;3.10;;
38318;SDS011;24121;53.536;10.224;2023-06-22T08:19:09;4.00;;;2.92;;
38318;SDS011;24121;53.536;10.224;2023-06-22T08:21:34;5.43;;;3.08;;
38318;SDS011;24121;53.536;10.224;2023-06-22T08:26:27;4.57;;;2.95;;
38318;SDS011;24121;53.536;10.224;2023-06-22T08:28:52;3.78;;;2.88;;
38318;SDS011;24121;53.536;10.224;2023-06-22T08:31:17;3.10;;;2.65;;
38318;SDS011;24121;53.536;10.224;2023-06-22T08:33:43;4.28;;;2.80;;
38318;SDS011;24121;53.536;10.224;2023-06-22T08:36:10;3.55;;;2.65;;
38318;SDS011;24121;53.536;10.224;2023-06-22T08:38:38;3.10;;;2.47;;
38318;SDS011;24121;53.536;10.224;2023-06-22T08:41:03;4.45;;;2.70;;
38318;SDS011;24121;53.536;10.224;2023-06-22T08:43:28;3.03;;;2.72;;
38318;SDS011;24121;53.536;10.224;2023-06-22T08:45:53;3.90;;;3.00;;
38318;SDS011;24121;53.536;10.224;2023-06-22T08:48:19;3.67;;;2.50;;
38318;SDS011;24121;53.536;10.224;2023-06-22T08:50:44;3.80;;;2.47;;
38318;SDS011;24121;53.536;10.224;2023-06-22T08:53:09;3.08;;;2.50;;
38318;SDS011;24121;53.536;10.224;2023-06-22T08:55:35;2.53;;;1.83;;
38318;SDS011;24121;53.536;10.224;2023-06-22T08:58:00;5.25;;;2.30;;
38318;SDS011;24121;53.536;10.224;2023-06-22T09:00:25;3.78;;;2.50;;
38318;SDS011;24121;53.536;10.224;2023-06-22T09:02:52;3.35;;;2.20;;
38318;SDS011;24121;53.536;10.224;2023-06-22T09:05:17;2.60;;;2.17;;
38318;SDS011;24121;53.536;10.224;2023-06-22T09:07:43;3.47;;;2.47;;
38318;SDS011;24121;53.536;10.224;2023-06-22T09:10:08;2.80;;;2.22;;
38318;SDS011;24121;53.536;10.224;2023-06-22T09:12:34;5.18;;;3.00;;
38318;SDS011;24121;53.536;10.224;2023-06-22T09:14:59;3.40;;;2.38;;
38318;SDS011;24121;53.536;10.224;2023-06-22T09:17:25;7.05;;;3.08;;
38318;SDS011;24121;53.536;10.224;2023-06-22T09:19:51;3.50;;;2.63;;
38318;SDS011;24121;53.536;10.224;2023-06-22T09:22:16;3.55;;;2.20;;
38318;SDS011;24121;53.536;10.224;2023-06-22T09:24:42;7.82;;;2.88;;
38318;SDS011;24121;53.536;10.224;2023-06-22T09:27:07;3.42;;;2.85;;
38318;SDS011;24121;53.536;10.224;2023-06-22T09:29:32;3.67;;;2.60;;
38318;SDS011;24121;53.536;10.224;2023-06-22T09:32:00;3.92;;;3.03;;
38318;SDS011;24121;53.536;10.224;2023-06-22T09:34:26;6.15;;;2.88;;
38318;SDS011;24121;53.536;10.224;2023-06-22T09:36:51;4.20;;;3.08;;
38318;SDS011;24121;53.536;10.224;2023-06-22T09:39:20;4.18;;;3.05;;
38318;SDS011;24121;53.536;10.224;2023-06-22T09:41:45;4.05;;;2.70;;
38318;SDS011;24121;53.536;10.224;2023-06-22T09:44:10;6.20;;;3.50;;
38318;SDS011;24121;53.536;10.224;2023-06-22T09:46:36;2.90;;;2.50;;
38318;SDS011;24121;53.536;10.224;2023-06-22T09:49:01;4.10;;;2.75;;
38318;SDS011;24121;53.536;10.224;2023-06-22T09:51:26;3.28;;;2.88;;
38318;SDS011;24121;53.536;10.224;2023-06-22T09:53:52;3.88;;;2.65;;
38318;SDS011;24121;53.536;10.224;2023-06-22T09:56:19;5.18;;;2.90;;
38318;SDS011;24121;53.536;10.224;2023-06-22T09:58:44;4.10;;;3.10;;
38318;SDS011;24121;53.536;10.224;2023-06-22T10:01:11;3.97;;;3.00;;
38318;SDS011;24121;53.536;10.224;2023-06-22T10:03:36;4.13;;;2.70;;
38318;SDS011;24121;53.536;10.224;2023-06-22T10:06:02;3.60;;;2.83;;
38318;SDS011;24121;53.536;10.224;2023-06-22T10:08:27;3.45;;;3.03;;
38318;SDS011;24121;53.536;10.224;2023-06-22T10:10:53;5.72;;;3.38;;
38318;SDS011;24121;53.536;10.224;2023-06-22T10:13:18;3.75;;;2.85;;
38318;SDS011;24121;53.536;10.224;2023-06-22T10:15:44;3.25;;;2.95;;
38318;SDS011;24121;53.536;10.224;2023-06-22T10:18:14;4.22;;;3.30;;
38318;SDS011;24121;53.536;10.224;2023-06-22T10:20:43;3.80;;;3.03;;
38318;SDS011;24121;53.536;10.224;2023-06-22T10:23:08;4.35;;;2.97;;
38318;SDS011;24121;53.536;10.224;2023-06-22T10:25:33;4.20;;;2.80;;
38318;SDS011;24121;53.536;10.224;2023-06-22T10:27:59;3.55;;;2.78;;
38318;SDS011;24121;53.536;10.224;2023-06-22T10:30:24;3.50;;;2.80;;
38318;SDS011;24121;53.536;10.224;2023-06-22T10:32:50;4.25;;;3.40;;
38318;SDS011;24121;53.536;10.224;2023-06-22T10:35:15;4.75;;;3.60;;
38318;SDS011;24121;53.536;10.224;2023-06-22T10:37:44;3.97;;;3.45;;
38318;SDS011;24121;53.536;10.224;2023-06-22T10:40:11;4.32;;;3.55;;
38318;SDS011;24121;53.536;10.224;2023-06-22T10:42:40;3.53;;;3.20;;
38318;SDS011;24121;53.536;10.224;2023-06-22T10:45:05;5.40;;;3.30;;
38318;SDS011;24121;53.536;10.224;2023-06-22T10:47:31;5.10;;;3.72;;
38318;SDS011;24121;53.536;10.224;2023-06-22T10:49:57;3.70;;;3.40;;
38318;SDS011;24121;53.536;10.224;2023-06-22T10:52:22;3.92;;;3.50;;
38318;SDS011;24121;53.536;10.224;2023-06-22T10:54:47;4.93;;;3.60;;
38318;SDS011;24121;53.536;10.224;2023-06-22T10:57:13;3.80;;;3.42;;
38318;SDS011;24121;53.536;10.224;2023-06-22T10:59:38;4.88;;;3.30;;
38318;SDS011;24121;53.536;10.224;2023-06-22T11:02:04;4.18;;;3.50;;
38318;SDS011;24121;53.536;10.224;2023-06-22T11:04:29;3.70;;;3.30;;
38318;SDS011;24121;53.536;10.224;2023-06-22T11:06:54;7.38;;;3.88;;
38318;SDS011;24121;53.536;10.224;2023-06-22T11:09:21;4.35;;;3.55;;
38318;SDS011;24121;53.536;10.224;2023-06-22T11:11:47;4.05;;;3.22;;
38318;SDS011;24121;53.536;10.224;2023-06-22T11:14:13;4.28;;;3.63;;
38318;SDS011;24121;53.536;10.224;2023-06-22T11:16:38;4.68;;;3.72;;
38318;SDS011;24121;53.536;10.224;2023-06-22T11:19:04;4.80;;;3.92;;
38318;SDS011;24121;53.536;10.224;2023-06-22T11:21:30;3.85;;;3.53;;
38318;SDS011;24121;53.536;10.224;2023-06-22T11:23:56;7.50;;;3.72;;
38318;SDS011;24121;53.536;10.224;2023-06-22T11:26:22;4.88;;;3.83;;
38318;SDS011;24121;53.536;10.224;2023-06-22T11:28:47;4.15;;;3.70;;
38318;SDS011;24121;53.536;10.224;2023-06-22T11:31:12;4.03;;;3.60;;
38318;SDS011;24121;53.536;10.224;2023-06-22T11:33:38;4.60;;;4.13;;
38318;SDS011;24121;53.536;10.224;2023-06-22T11:36:03;5.28;;;4.18;;
38318;SDS011;24121;53.536;10.224;2023-06-22T11:38:28;4.95;;;4.35;;
38318;SDS011;24121;53.536;10.224;2023-06-22T11:40:55;4.40;;;3.78;;
38318;SDS011;24121;53.536;10.224;2023-06-22T11:43:21;4.50;;;4.10;;
38318;SDS011;24121;53.536;10.224;2023-06-22T11:45:46;4.90;;;4.32;;
38318;SDS011;24121;53.536;10.224;2023-06-22T11:48:11;5.00;;;4.50;;
38318;SDS011;24121;53.536;10.224;2023-06-22T11:50:37;4.63;;;4.22;;
38318;SDS011;24121;53.536;10.224;2023-06-22T11:53:02;4.63;;;4.18;;
38318;SDS011;24121;53.536;10.224;2023-06-22T11:55:28;4.50;;;3.85;;
38318;SDS011;24121;53.536;10.224;2023-06-22T11:57:54;4.43;;;4.03;;
38318;SDS011;24121;53.536;10.224;2023-06-22T12:00:21;7.30;;;4.43;;
38318;SDS011;24121;53.536;10.224;2023-06-22T12:02:48;7.38;;;5.43;;
38318;SDS011;24121;53.536;10.224;2023-06-22T12:05:14;4.25;;;3.85;;
38318;SDS011;24121;53.536;10.224;2023-06-22T12:07:39;5.28;;;4.28;;
38318;SDS011;24121;53.536;10.224;2023-06-22T12:10:05;5.40;;;4.10;;
38318;SDS011;24121;53.536;10.224;2023-06-22T12:12:30;4.22;;;3.83;;
38318;SDS011;24121;53.536;10.224;2023-06-22T12:14:56;5.28;;;4.05;;
38318;SDS011;24121;53.536;10.224;2023-06-22T12:17:21;4.95;;;4.10;;
38318;SDS011;24121;53.536;10.224;2023-06-22T12:19:46;5.82;;;4.05;;
38318;SDS011;24121;53.536;10.224;2023-06-22T12:22:12;5.53;;;4.30;;
38318;SDS011;24121;53.536;10.224;2023-06-22T12:24:37;5.38;;;4.57;;
38318;SDS011;24121;53.536;10.224;2023-06-22T12:27:02;5.90;;;4.15;;
38318;SDS011;24121;53.536;10.224;2023-06-22T12:29:28;4.78;;;4.20;;
38318;SDS011;24121;53.536;10.224;2023-06-22T12:31:53;6.10;;;4.15;;
38318;SDS011;24121;53.536;10.224;2023-06-22T12:34:19;4.60;;;3.85;;
38318;SDS011;24121;53.536;10.224;2023-06-22T12:36:44;5.05;;;4.25;;
38318;SDS011;24121;53.536;10.224;2023-06-22T12:39:09;4.95;;;4.28;;
38318;SDS011;24121;53.536;10.224;2023-06-22T12:41:34;5.45;;;4.25;;
38318;SDS011;24121;53.536;10.224;2023-06-22T12:44:00;4.78;;;4.13;;
38318;SDS011;24121;53.536;10.224;2023-06-22T12:46:25;5.15;;;4.65;;
38318;SDS011;24121;53.536;10.224;2023-06-22T12:48:50;6.05;;;5.03;;
38318;SDS011;24121;53.536;10.224;2023-06-22T12:51:22;5.43;;;4.93;;
38318;SDS011;24121;53.536;10.224;2023-06-22T12:53:47;5.60;;;5.10;;
38318;SDS011;24121;53.536;10.224;2023-06-22T12:56:13;5.82;;;5.03;;
38318;SDS011;24121;53.536;10.224;2023-06-22T12:58:38;6.03;;;5.05;;
38318;SDS011;24121;53.536;10.224;2023-06-22T13:01:03;5.53;;;5.05;;
38318;SDS011;24121;53.536;10.224;2023-06-22T13:03:28;5.28;;;4.78;;
38318;SDS011;24121;53.536;10.224;2023-06-22T13:05:54;5.05;;;4.65;;
38318;SDS011;24121;53.536;10.224;2023-06-22T13:08:19;6.13;;;5.10;;
38318;SDS011;24121;53.536;10.224;2023-06-22T13:10:44;5.65;;;4.93;;
38318;SDS011;24121;53.536;10.224;2023-06-22T13:13:10;5.22;;;4.82;;
38318;SDS011;24121;53.536;10.224;2023-06-22T13:15:35;6.53;;;5.40;;
38318;SDS011;24121;53.536;10.224;2023-06-22T13:18:00;5.35;;;4.85;;
38318;SDS011;24121;53.536;10.224;2023-06-22T13:20:26;5.18;;;4.68;;
38318;SDS011;24121;53.536;10.224;2023-06-22T13:22:52;5.30;;;4.90;;
38318;SDS011;24121;53.536;10.224;2023-06-22T13:25:19;5.32;;;4.82;;
38318;SDS011;24121;53.536;10.224;2023-06-22T13:27:47;5.55;;;4.82;;
38318;SDS011;24121;53.536;10.224;2023-06-22T13:30:12;6.85;;;5.00;;
38318;SDS011;24121;53.536;10.224;2023-06-22T13:32:37;6.90;;;5.22;;
38318;SDS011;24121;53.536;10.224;2023-06-22T13:35:04;6.95;;;4.85;;
38318;SDS011;24121;53.536;10.224;2023-06-22T13:37:29;5.40;;;4.90;;
38318;SDS011;24121;53.536;10.224;2023-06-22T13:39:54;5.80;;;5.30;;
38318;SDS011;24121;53.536;10.224;2023-06-22T13:42:21;5.30;;;4.80;;
38318;SDS011;24121;53.536;10.224;2023-06-22T13:44:46;6.50;;;4.43;;
38318;SDS011;24121;53.536;10.224;2023-06-22T13:47:11;5.90;;;5.07;;
38318;SDS011;24121;53.536;10.224;2023-06-22T13:49:37;5.55;;;5.00;;
38318;SDS011;24121;53.536;10.224;2023-06-22T13:52:02;5.28;;;4.78;;
38318;SDS011;24121;53.536;10.224;2023-06-22T13:54:29;5.00;;;4.55;;
38318;SDS011;24121;53.536;10.224;2023-06-22T13:56:54;6.43;;;4.30;;
38318;SDS011;24121;53.536;10.224;2023-06-22T13:59:19;5.10;;;4.70;;
38318;SDS011;24121;53.536;10.224;2023-06-22T14:01:45;6.28;;;4.40;;
38318;SDS011;24121;53.536;10.224;2023-06-22T14:04:10;4.72;;;4.18;;
38318;SDS011;24121;53.536;10.224;2023-06-22T14:06:36;5.25;;;4.75;;
38318;SDS011;24121;53.536;10.224;2023-06-22T14:09:02;5.57;;;4.57;;
38318;SDS011;24121;53.536;10.224;2023-06-22T14:11:27;6.07;;;4.82;;
38318;SDS011;24121;53.536;10.224;2023-06-22T14:13:53;5.68;;;4.85;;
38318;SDS011;24121;53.536;10.224;2023-06-22T14:16:18;5.13;;;4.63;;
38318;SDS011;24121;53.536;10.224;2023-06-22T14:18:44;7.25;;;5.32;;
38318;SDS011;24121;53.536;10.224;2023-06-22T14:21:10;5.28;;;4.78;;
38318;SDS011;24121;53.536;10.224;2023-06-22T14:23:35;6.93;;;5.35;;
38318;SDS011;24121;53.536;10.224;2023-06-22T14:26:00;8.15;;;4.70;;
38318;SDS011;24121;53.536;10.224;2023-06-22T14:28:26;9.98;;;4.82;;
38318;SDS011;24121;53.536;10.224;2023-06-22T14:30:51;7.40;;;5.10;;
38318;SDS011;24121;53.536;10.224;2023-06-22T14:33:16;6.40;;;4.70;;
38318;SDS011;24121;53.536;10.224;2023-06-22T14:35:41;7.05;;;5.07;;
38318;SDS011;24121;53.536;10.224;2023-06-22T14:38:07;8.63;;;4.90;;
38318;SDS011;24121;53.536;10.224;2023-06-22T14:40:32;10.63;;;4.75;;
38318;SDS011;24121;53.536;10.224;2023-06-22T14:42:57;5.32;;;4.82;;
38318;SDS011;24121;53.536;10.224;2023-06-22T14:45:23;7.35;;;4.72;;
38318;SDS011;24121;53.536;10.224;2023-06-22T14:47:48;6.57;;;4.72;;
38318;SDS011;24121;53.536;10.224;2023-06-22T14:50:14;5.63;;;4.80;;
38318;SDS011;24121;53.536;10.224;2023-06-22T14:52:39;6.53;;;4.40;;
38318;SDS011;24121;53.536;10.224;2023-06-22T14:55:05;5.75;;;4.97;;
38318;SDS011;24121;53.536;10.224;2023-06-22T14:57:30;5.78;;;4.70;;
38318;SDS011;24121;53.536;10.224;2023-06-22T14:59:56;5.95;;;4.47;;
38318;SDS011;24121;53.536;10.224;2023-06-22T15:02:21;6.63;;;4.30;;
38318;SDS011;24121;53.536;10.224;2023-06-22T15:04:47;7.22;;;4.82;;
38318;SDS011;24121;53.536;10.224;2023-06-22T15:07:12;5.25;;;4.65;;
38318;SDS011;24121;53.536;10.224;2023-06-22T15:09:37;6.38;;;4.70;;
38318;SDS011;24121;53.536;10.224;2023-06-22T15:12:06;6.15;;;4.38;;
38318;SDS011;24121;53.536;10.224;2023-06-22T15:14:36;6.40;;;5.22;;
38318;SDS011;24121;53.536;10.224;2023-06-22T15:17:02;5.20;;;4.70;;
38318;SDS011;24121;53.536;10.224;2023-06-22T15:19:27;5.75;;;4.80;;
38318;SDS011;24121;53.536;10.224;2023-06-22T15:21:52;5.13;;;4.57;;
38318;SDS011;24121;53.536;10.224;2023-06-22T15:24:17;5.43;;;4.70;;
38318;SDS011;24121;53.536;10.224;2023-06-22T15:26:43;6.40;;;4.53;;
38318;SDS011;24121;53.536;10.224;2023-06-22T15:29:08;5.97;;;4.43;;
38318;SDS011;24121;53.536;10.224;2023-06-22T15:31:33;5.40;;;4.90;;
38318;SDS011;24121;53.536;10.224;2023-06-22T15:33:59;7.22;;;4.22;;
38318;SDS011;24121;53.536;10.224;2023-06-22T15:36:24;5.00;;;4.50;;
38318;SDS011;24121;53.536;10.224;2023-06-22T15:38:49;6.43;;;4.88;;
38318;SDS011;24121;53.536;10.224;2023-06-22T15:41:14;7.78;;;4.72;;
38318;SDS011;24121;53.536;10.224;2023-06-22T15:43:40;6.68;;;4.38;;
38318;SDS011;24121;53.536;10.224;2023-06-22T15:46:05;8.75;;;4.57;;
38318;SDS011;24121;53.536;10.224;2023-06-22T15:48:30;5.25;;;4.75;;
38318;SDS011;24121;53.536;10.224;2023-06-22T15:50:56;4.85;;;4.20;;
38318;SDS011;24121;53.536;10.224;2023-06-22T15:53:21;4.18;;;3.67;;
38318;SDS011;24121;53.536;10.224;2023-06-22T15:55:46;5.18;;;4.28;;
38318;SDS011;24121;53.536;10.224;2023-06-22T15:58:12;6.05;;;4.22;;
38318;SDS011;24121;53.536;10.224;2023-06-22T16:00:38;4.30;;;3.90;;
38318;SDS011;24121;53.536;10.224;2023-06-22T16:03:04;3.97;;;3.47;;
38318;SDS011;24121;53.536;10.224;2023-06-22T16:05:29;5.25;;;3.60;;
38318;SDS011;24121;53.536;10.224;2023-06-22T16:07:55;4.93;;;3.88;;
38318;SDS011;24121;53.536;10.224;2023-06-22T16:10:20;4.20;;;3.65;;
38318;SDS011;24121;53.536;10.224;2023-06-22T16:12:45;4.03;;;3.63;;
38318;SDS011;24121;53.536;10.224;2023-06-22T16:15:11;4.35;;;3.40;;
38318;SDS011;24121;53.536;10.224;2023-06-22T16:17:36;4.25;;;3.28;;
38318;SDS011;24121;53.536;10.224;2023-06-22T16:20:06;4.13;;;3.63;;
38318;SDS011;24121;53.536;10.224;2023-06-22T16:22:32;3.90;;;3.60;;
38318;SDS011;24121;53.536;10.224;2023-06-22T16:24:57;4.75;;;3.28;;
38318;SDS011;24121;53.536;10.224;2023-06-22T16:27:23;4.70;;;3.63;;
38318;SDS011;24121;53.536;10.224;2023-06-22T16:29:53;6.63;;;3.53;;
38318;SDS011;24121;53.536;10.224;2023-06-22T16:32:19;4.38;;;3.50;;
38318;SDS011;24121;53.536;10.224;2023-06-22T16:34:44;4.03;;;3.38;;
38318;SDS011;24121;53.536;10.224;2023-06-22T16:37:12;4.32;;;3.00;;
38318;SDS011;24121;53.536;10.224;2023-06-22T16:39:38;3.88;;;2.80;;
38318;SDS011;24121;53.536;10.224;2023-06-22T16:42:03;5.35;;;3.33;;
38318;SDS011;24121;53.536;10.224;2023-06-22T16:44:29;5.35;;;3.28;;
38318;SDS011;24121;53.536;10.224;2023-06-22T16:46:54;3.65;;;3.00;;
38318;SDS011;24121;53.536;10.224;2023-06-22T16:49:20;3.53;;;2.95;;
38318;SDS011;24121;53.536;10.224;2023-06-22T16:51:45;3.03;;;2.70;;
38318;SDS011;24121;53.536;10.224;2023-06-22T16:54:10;4.13;;;3.03;;
38318;SDS011;24121;53.536;10.224;2023-06-22T16:56:36;4.85;;;3.15;;
38318;SDS011;24121;53.536;10.224;2023-06-22T16:59:01;6.50;;;3.15;;
38318;SDS011;24121;53.536;10.224;2023-06-22T17:01:27;3.78;;;2.88;;
38318;SDS011;24121;53.536;10.224;2023-06-22T17:04:09;5.47;;;3.10;;
38318;SDS011;24121;53.536;10.224;2023-06-22T17:06:39;5.35;;;3.25;;
38318;SDS011;24121;53.536;10.224;2023-06-22T17:09:07;3.70;;;2.92;;
38318;SDS011;24121;53.536;10.224;2023-06-22T17:11:36;5.60;;;3.20;;
38318;SDS011;24121;53.536;10.224;2023-06-22T17:14:01;6.25;;;3.35;;
38318;SDS011;24121;53.536;10.224;2023-06-22T17:16:28;3.63;;;3.28;;
38318;SDS011;24121;53.536;10.224;2023-06-22T17:18:56;8.20;;;3.63;;
38318;SDS011;24121;53.536;10.224;2023-06-22T17:21:22;3.97;;;3.47;;
38318;SDS011;24121;53.536;10.224;2023-06-22T17:23:48;5.45;;;3.20;;
38318;SDS011;24121;53.536;10.224;2023-06-22T17:26:18;5.97;;;3.95;;
38318;SDS011;24121;53.536;10.224;2023-06-22T17:28:47;6.70;;;4.15;;
38318;SDS011;24121;53.536;10.224;2023-06-22T17:31:14;4.93;;;3.70;;
38318;SDS011;24121;53.536;10.224;2023-06-22T17:33:39;4.82;;;3.60;;
38318;SDS011;24121;53.536;10.224;2023-06-22T17:36:08;5.07;;;4.05;;
38318;SDS011;24121;53.536;10.224;2023-06-22T17:38:36;4.32;;;3.67;;
38318;SDS011;24121;53.536;10.224;2023-06-22T17:41:01;4.40;;;4.00;;
38318;SDS011;24121;53.536;10.224;2023-06-22T17:43:29;5.90;;;4.63;;
38318;SDS011;24121;53.536;10.224;2023-06-22T17:45:57;4.63;;;3.70;;
38318;SDS011;24121;53.536;10.224;2023-06-22T17:48:23;6.38;;;3.90;;
38318;SDS011;24121;53.536;10.224;2023-06-22T17:50:49;4.90;;;3.70;;
38318;SDS011;24121;53.536;10.224;2023-06-22T17:53:15;5.10;;;3.70;;
38318;SDS011;24121;53.536;10.224;2023-06-22T17:55:40;5.30;;;3.50;;
38318;SDS011;24121;53.536;10.224;2023-06-22T17:58:05;3.67;;;3.38;;
38318;SDS011;24121;53.536;10.224;2023-06-22T18:00:31;5.47;;;3.25;;
38318;SDS011;24121;53.536;10.224;2023-06-22T18:02:57;4.80;;;3.40;;
38318;SDS011;24121;53.536;10.224;2023-06-22T18:05:35;4.63;;;2.75;;
38318;SDS011;24121;53.536;10.224;2023-06-22T18:08:02;4.57;;;2.73;;
38318;SDS011;24121;53.536;10.224;2023-06-22T18:10:29;4.63;;;2.38;;
38318;SDS011;24121;53.536;10.224;2023-06-22T18:12:57;2.58;;;2.22;;
38318;SDS011;24121;53.536;10.224;2023-06-22T18:15:24;2.22;;;2.03;;
38318;SDS011;24121;53.536;10.224;2023-06-22T18:17:50;2.55;;;2.35;;
38318;SDS011;24121;53.536;10.224;2023-06-22T18:20:16;2.22;;;1.73;;
38318;SDS011;24121;53.536;10.224;2023-06-22T18:22:42;2.45;;;2.10;;
38318;SDS011;24121;53.536;10.224;2023-06-22T18:25:07;2.47;;;1.83;;
38318;SDS011;24121;53.536;10.224;2023-06-22T18:27:35;3.63;;;1.80;;
38318;SDS011;24121;53.536;10.224;2023-06-22T18:30:00;4.75;;;2.08;;
38318;SDS011;24121;53.536;10.224;2023-06-22T18:32:27;2.17;;;1.80;;
38318;SDS011;24121;53.536;10.224;2023-06-22T18:34:53;2.55;;;1.80;;
38318;SDS011;24121;53.536;10.224;2023-06-22T18:37:19;3.05;;;1.80;;
38318;SDS011;24121;53.536;10.224;2023-06-22T18:39:45;2.65;;;1.73;;
38318;SDS011;24121;53.536;10.224;2023-06-22T18:42:14;2.83;;;1.70;;
38318;SDS011;24121;53.536;10.224;2023-06-22T18:44:41;1.63;;;1.42;;
38318;SDS011;24121;53.536;10.224;2023-06-22T18:47:07;6.15;;;1.70;;
38318;SDS011;24121;53.536;10.224;2023-06-22T18:54:35;4.53;;;1.70;;
38318;SDS011;24121;53.536;10.224;2023-06-22T18:57:03;2.20;;;1.70;;
38318;SDS011;24121;53.536;10.224;2023-06-22T18:59:44;2.35;;;1.70;;
38318;SDS011;24121;53.536;10.224;2023-06-22T19:02:14;2.75;;;1.52;;
38318;SDS011;24121;53.536;10.224;2023-06-22T19:04:43;2.42;;;1.85;;
38318;SDS011;24121;53.536;10.224;2023-06-22T19:07:10;2.35;;;1.60;;
38318;SDS011;24121;53.536;10.224;2023-06-22T19:09:37;2.15;;;1.67;;
38318;SDS011;24121;53.536;10.224;2023-06-22T19:15:03;2.65;;;1.48;;
38318;SDS011;24121;53.536;10.224;2023-06-22T19:17:34;2.45;;;1.70;;
38318;SDS011;24121;53.536;10.224;2023-06-22T19:20:03;2.20;;;1.70;;
38318;SDS011;24121;53.536;10.224;2023-06-22T19:22:46;1.65;;;1.48;;
38318;SDS011;24121;53.536;10.224;2023-06-22T19:25:18;1.75;;;1.50;;
38318;SDS011;24121;53.536;10.224;2023-06-22T19:27:45;1.95;;;1.75;;
38318;SDS011;24121;53.536;10.224;2023-06-22T19:30:12;3.35;;;1.63;;
38318;SDS011;24121;53.536;10.224;2023-06-22T19:32:39;2.97;;;1.50;;
38318;SDS011;24121;53.536;10.224;2023-06-22T19:35:05;3.10;;;1.70;;
38318;SDS011;24121;53.536;10.224;2023-06-22T19:37:31;2.55;;;1.65;;
38318;SDS011;24121;53.536;10.224;2023-06-22T19:39:56;2.75;;;1.80;;
38318;SDS011;24121;53.536;10.224;2023-06-22T19:42:22;2.42;;;1.60;;
38318;SDS011;24121;53.536;10.224;2023-06-22T19:44:47;2.28;;;1.60;;
38318;SDS011;24121;53.536;10.224;2023-06-22T19:47:12;3.55;;;1.50;;
38318;SDS011;24121;53.536;10.224;2023-06-22T19:49:38;3.28;;;1.65;;
38318;SDS011;24121;53.536;10.224;2023-06-22T19:52:06;2.25;;;1.45;;
38318;SDS011;24121;53.536;10.224;2023-06-22T19:54:32;2.80;;;1.60;;
38318;SDS011;24121;53.536;10.224;2023-06-22T19:57:01;1.63;;;1.30;;
38318;SDS011;24121;53.536;10.224;2023-06-22T19:59:27;2.47;;;1.60;;
38318;SDS011;24121;53.536;10.224;2023-06-22T20:01:52;1.45;;;1.35;;
38318;SDS011;24121;53.536;10.224;2023-06-22T20:04:18;3.30;;;1.73;;
38318;SDS011;24121;53.536;10.224;2023-06-22T20:07:02;3.38;;;1.33;;
38318;SDS011;24121;53.536;10.224;2023-06-22T20:09:27;2.83;;;1.70;;
38318;SDS011;24121;53.536;10.224;2023-06-22T20:11:56;2.03;;;1.83;;
38318;SDS011;24121;53.536;10.224;2023-06-22T20:14:22;2.27;;;1.80;;
38318;SDS011;24121;53.536;10.224;2023-06-22T20:16:47;3.38;;;1.92;;
38318;SDS011;24121;53.536;10.224;2023-06-22T20:19:18;3.20;;;1.98;;
38318;SDS011;24121;53.536;10.224;2023-06-22T20:21:44;2.15;;;1.60;;
38318;SDS011;24121;53.536;10.224;2023-06-22T20:24:10;2.25;;;1.60;;
38318;SDS011;24121;53.536;10.224;2023-06-22T20:26:36;6.13;;;2.20;;
38318;SDS011;24121;53.536;10.224;2023-06-22T20:32:00;4.80;;;2.10;;
38318;SDS011;24121;53.536;10.224;2023-06-22T20:34:36;3.40;;;1.85;;
38318;SDS011;24121;53.536;10.224;2023-06-22T20:37:03;3.78;;;3.28;;
38318;SDS011;24121;53.536;10.224;2023-06-22T20:39:28;6.00;;;2.63;;
38318;SDS011;24121;53.536;10.224;2023-06-22T20:41:54;4.03;;;3.00;;
38318;SDS011;24121;53.536;10.224;2023-06-22T20:44:19;9.88;;;3.90;;
38318;SDS011;24121;53.536;10.224;2023-06-22T20:46:45;5.97;;;3.28;;
38318;SDS011;24121;53.536;10.224;2023-06-22T20:49:10;5.20;;;3.22;;
38318;SDS011;24121;53.536;10.224;2023-06-22T20:51:36;7.90;;;3.55;;
38318;SDS011;24121;53.536;10.224;2023-06-22T20:54:01;6.53;;;4.20;;
38318;SDS011;24121;53.536;10.224;2023-06-22T20:56:29;5.85;;;4.22;;
38318;SDS011;24121;53.536;10.224;2023-06-22T20:58:54;4.85;;;3.63;;
38318;SDS011;24121;53.536;10.224;2023-06-22T21:01:20;6.70;;;3.45;;
38318;SDS011;24121;53.536;10.224;2023-06-22T21:03:45;5.35;;;4.30;;
38318;SDS011;24121;53.536;10.224;2023-06-22T21:06:10;5.72;;;3.72;;
38318;SDS011;24121;53.536;10.224;2023-06-22T21:08:36;5.85;;;3.40;;
38318;SDS011;24121;53.536;10.224;2023-06-22T21:11:03;5.40;;;3.80;;
38318;SDS011;24121;53.536;10.224;2023-06-22T21:13:28;5.97;;;3.45;;
38318;SDS011;24121;53.536;10.224;2023-06-22T21:15:55;3.75;;;2.95;;
38318;SDS011;24121;53.536;10.224;2023-06-22T21:18:20;4.53;;;3.20;;
38318;SDS011;24121;53.536;10.224;2023-06-22T21:20:45;5.68;;;3.30;;
38318;SDS011;24121;53.536;10.224;2023-06-22T21:23:11;3.95;;;3.08;;